createdAt,value
2018-09-18T00:02:06.098Z,8.57
2018-09-18T00:05:09.199Z,10.93
2018-09-18T00:08:12.305Z,15.40
2018-09-18T00:11:15.391Z,11.13
2018-09-18T00:14:18.488Z,6.97
2018-09-18T00:17:21.647Z,9.07
2018-09-18T00:20:24.752Z,12.27
2018-09-18T00:23:28.167Z,7.93
2018-09-18T00:26:31.307Z,11.37
2018-09-18T00:29:34.431Z,6.43
2018-09-18T00:32:37.548Z,7.87
2018-09-18T00:35:40.723Z,8.47
2018-09-18T00:38:43.820Z,8.63
2018-09-18T00:41:48.013Z,7.17
2018-09-18T00:44:51.120Z,9.93
2018-09-18T00:47:54.255Z,6.67
2018-09-18T00:50:57.355Z,8.03
2018-09-18T00:54:00.448Z,7.13
2018-09-18T00:57:05.234Z,8.53
2018-09-18T01:00:08.448Z,11.27
2018-09-18T01:03:11.563Z,9.60
2018-09-18T01:06:14.660Z,8.97
2018-09-18T01:09:17.767Z,7.33
2018-09-18T01:12:20.872Z,7.57
2018-09-18T01:15:23.984Z,8.53
2018-09-18T01:18:42.943Z,6.53
2018-09-18T01:21:46.063Z,9.67
2018-09-18T01:24:49.274Z,11.07
2018-09-18T01:27:52.457Z,12.87
2018-09-18T01:30:55.588Z,11.73
2018-09-18T01:33:58.792Z,6.87
2018-09-18T01:37:01.926Z,7.60
2018-09-18T01:40:05.438Z,7.50
2018-09-18T01:43:08.558Z,12.30
2018-09-18T01:46:11.663Z,10.83
2018-09-18T01:49:14.775Z,9.67
2018-09-18T01:52:17.890Z,8.47
2018-09-18T01:55:21.079Z,13.40
2018-09-18T01:58:24.239Z,11.20
2018-09-18T02:01:27.344Z,8.53
2018-09-18T02:04:30.458Z,8.30
2018-09-18T02:07:33.576Z,7.37
2018-09-18T02:10:36.729Z,7.83
2018-09-18T02:13:40.939Z,12.37
2018-09-18T02:16:44.060Z,7.57
2018-09-18T02:19:47.180Z,13.50
2018-09-18T02:22:50.330Z,14.63
2018-09-18T02:25:53.435Z,9.13
2018-09-18T02:28:56.590Z,10.53
2018-09-18T02:31:59.799Z,11.03
2018-09-18T02:35:02.923Z,7.77
2018-09-18T02:38:06.048Z,9.30
2018-09-18T02:41:09.502Z,9.63
2018-09-18T02:44:12.608Z,9.20
2018-09-18T02:47:15.779Z,9.43
2018-09-18T02:50:18.906Z,10.37
2018-09-18T02:53:22.098Z,12.07
2018-09-18T02:56:25.247Z,10.33
2018-09-18T02:59:28.363Z,6.53
2018-09-18T03:02:31.480Z,9.83
2018-09-18T03:05:35.739Z,9.77
2018-09-18T03:08:39.035Z,11.17
2018-09-18T03:11:42.139Z,8.83
2018-09-18T03:14:45.296Z,9.23
2018-09-18T03:17:48.464Z,11.43
2018-09-18T03:20:51.633Z,10.93
2018-09-18T03:23:54.700Z,13.20
2018-09-18T03:26:57.953Z,9.23
2018-09-18T03:30:01.076Z,7.47
2018-09-18T03:33:04.268Z,10.67
2018-09-18T03:36:07.404Z,8.23
2018-09-18T03:39:10.591Z,12.40
2018-09-18T03:42:13.688Z,9.40
2018-09-18T03:45:16.768Z,8.40
2018-09-18T03:48:19.860Z,10.27
2018-09-18T03:51:22.958Z,11.07
2018-09-18T03:54:26.156Z,9.90
2018-09-18T03:57:29.257Z,10.27
2018-09-18T04:00:32.359Z,9.03
2018-09-18T04:03:35.481Z,10.67
2018-09-18T04:06:38.659Z,11.33
2018-09-18T04:09:41.770Z,10.87
2018-09-18T04:12:44.914Z,11.80
2018-09-18T04:15:48.035Z,9.13
2018-09-18T04:18:51.115Z,8.30
2018-09-18T04:21:54.214Z,9.73
2018-09-18T04:24:57.408Z,14.87
2018-09-18T04:28:00.584Z,10.57
2018-09-18T04:31:03.691Z,9.27
2018-09-18T04:34:06.779Z,9.47
2018-09-18T04:37:09.915Z,9.43
2018-09-18T04:40:13.093Z,7.53
2018-09-18T04:43:16.187Z,10.37
2018-09-18T04:46:19.392Z,9.93
2018-09-18T04:49:22.518Z,7.63
2018-09-18T04:52:25.612Z,9.10
2018-09-18T04:55:28.763Z,8.73
2018-09-18T04:58:32.096Z,8.13
2018-09-18T05:01:35.684Z,9.27
2018-09-18T05:04:38.812Z,11.90
2018-09-18T05:07:41.896Z,9.27
2018-09-18T05:10:45.708Z,10.83
2018-09-18T05:13:48.890Z,11.53
2018-09-18T05:16:51.975Z,10.53
2018-09-18T05:19:55.152Z,14.50
2018-09-18T05:22:58.429Z,10.70
2018-09-18T05:26:01.523Z,8.50
2018-09-18T05:29:04.724Z,8.97
2018-09-18T05:32:07.855Z,10.20
2018-09-18T05:35:11.036Z,9.77
2018-09-18T05:38:14.320Z,10.03
2018-09-18T05:41:17.428Z,11.80
2018-09-18T05:44:21.347Z,10.27
2018-09-18T05:47:24.442Z,14.17
2018-09-18T05:50:27.557Z,7.73
2018-09-18T05:53:30.675Z,10.53
2018-09-18T05:56:33.895Z,10.63
2018-09-18T05:59:37.004Z,14.63
2018-09-18T06:02:40.228Z,9.77
2018-09-18T06:05:43.308Z,8.00
2018-09-18T06:08:46.403Z,13.07
2018-09-18T06:11:49.480Z,9.23
2018-09-18T06:14:52.591Z,13.67
2018-09-18T06:17:55.715Z,12.67
2018-09-18T06:20:58.816Z,11.23
2018-09-18T06:24:01.950Z,7.27
2018-09-18T06:27:05.344Z,11.60
2018-09-18T06:30:08.441Z,10.30
2018-09-18T06:33:11.523Z,14.87
2018-09-18T06:36:14.615Z,12.50
2018-09-18T06:39:17.817Z,8.67
2018-09-18T06:42:20.932Z,10.37
2018-09-18T06:45:23.996Z,10.67
2018-09-18T06:48:27.733Z,7.90
2018-09-18T06:51:30.887Z,9.43
2018-09-18T06:54:34.038Z,9.50
2018-09-18T06:57:37.168Z,9.13
2018-09-18T07:00:40.265Z,11.67
2018-09-18T07:03:43.417Z,11.60
2018-09-18T07:06:46.453Z,11.87
2018-09-18T07:09:49.545Z,11.97
2018-09-18T07:12:52.652Z,15.13
2018-09-18T07:15:55.732Z,7.73
2018-09-18T07:18:58.903Z,11.40
2018-09-18T07:22:01.971Z,11.37
2018-09-18T07:25:05.061Z,8.27
2018-09-18T07:28:08.151Z,10.90
2018-09-18T07:31:11.343Z,11.30
2018-09-18T07:34:14.440Z,12.53
2018-09-18T07:37:17.538Z,7.97
2018-09-18T07:40:20.644Z,8.40
2018-09-18T07:43:23.718Z,12.27
2018-09-18T07:46:26.859Z,11.00
2018-09-18T07:49:29.943Z,9.57
2018-09-18T07:52:33.271Z,11.37
2018-09-18T07:55:36.379Z,11.50
2018-09-18T07:58:39.472Z,9.50
2018-09-18T08:01:42.646Z,9.50
2018-09-18T08:04:45.723Z,8.63
2018-09-18T08:07:49.023Z,9.20
2018-09-18T08:10:52.389Z,11.77
2018-09-18T08:13:55.415Z,8.50
2018-09-18T08:16:58.496Z,14.27
2018-09-18T08:20:01.582Z,9.50
2018-09-18T08:23:04.656Z,8.00
2018-09-18T08:26:07.748Z,10.53
2018-09-18T08:29:10.900Z,9.43
2018-09-18T08:32:14.053Z,7.17
2018-09-18T08:35:18.260Z,11.43
2018-09-18T08:38:21.621Z,8.23
2018-09-18T08:41:24.762Z,7.90
2018-09-18T08:44:27.881Z,11.77
2018-09-18T08:47:30.946Z,11.07
2018-09-18T08:50:34.044Z,11.30
2018-09-18T08:53:37.128Z,11.83
2018-09-18T08:56:40.210Z,7.00
2018-09-18T08:59:43.379Z,7.87
2018-09-18T09:02:46.553Z,11.97
2018-09-18T09:05:49.671Z,14.27
2018-09-18T09:08:52.822Z,8.17
2018-09-18T09:11:55.856Z,12.70
2018-09-18T09:14:58.989Z,11.00
2018-09-18T09:18:02.132Z,10.23
2018-09-18T09:21:05.171Z,6.37
2018-09-18T09:24:08.225Z,8.47
2018-09-18T09:27:11.308Z,10.17
2018-09-18T09:30:14.476Z,8.13
2018-09-18T09:33:17.590Z,8.73
2018-09-18T09:36:20.716Z,11.60
2018-09-18T09:39:23.792Z,9.57
2018-09-18T09:42:26.869Z,8.60
2018-09-18T09:45:29.952Z,7.93
2018-09-18T09:48:33.687Z,7.17
2018-09-18T09:51:36.824Z,12.13
2018-09-18T09:54:39.831Z,9.23
2018-09-18T09:57:42.999Z,12.33
2018-09-18T10:00:51.460Z,11.40
2018-09-18T10:03:55.303Z,9.63
2018-09-18T10:06:58.399Z,11.87
2018-09-18T10:10:01.482Z,15.10
2018-09-18T10:13:04.592Z,9.10
2018-09-18T10:16:07.679Z,8.67
2018-09-18T10:19:10.772Z,8.53
2018-09-18T10:22:14.112Z,14.73
2018-09-18T10:25:17.190Z,11.50
2018-09-18T10:28:20.285Z,9.47
2018-09-18T10:31:23.402Z,6.00
2018-09-18T10:34:26.523Z,7.17
2018-09-18T10:37:29.717Z,6.93
2018-09-18T10:40:32.780Z,9.03
2018-09-18T10:43:35.860Z,7.90
2018-09-18T10:46:39.049Z,10.20
2018-09-18T10:49:42.092Z,8.33
2018-09-18T10:52:45.176Z,7.10
2018-09-18T10:55:48.376Z,10.50
2018-09-18T10:58:51.443Z,7.27
2018-09-18T11:01:54.724Z,5.13
2018-09-18T11:04:57.774Z,10.57
2018-09-18T11:08:00.869Z,6.97
2018-09-18T11:11:04.043Z,9.47
2018-09-18T11:14:07.211Z,11.03
2018-09-18T11:17:10.309Z,8.20
2018-09-18T11:20:13.974Z,7.87
2018-09-18T11:23:17.153Z,7.23
2018-09-18T11:26:20.219Z,7.53
2018-09-18T11:29:23.640Z,9.40
2018-09-18T11:32:26.729Z,5.63
2018-09-18T11:35:29.795Z,12.23
2018-09-18T11:38:32.920Z,8.27
2018-09-18T11:41:36.095Z,10.00
2018-09-18T11:44:39.160Z,5.53
2018-09-18T11:47:42.254Z,7.50
2018-09-18T11:50:45.325Z,6.80
2018-09-18T11:53:48.505Z,6.20
2018-09-18T11:56:51.762Z,6.95
2018-09-18T11:59:54.776Z,6.03
2018-09-18T12:02:57.956Z,12.85
2018-09-18T12:06:01.030Z,6.15
2018-09-18T12:09:05.685Z,6.75
2018-09-18T12:12:08.783Z,5.40
2018-09-18T12:15:11.971Z,7.12
2018-09-18T12:18:15.059Z,6.73
2018-09-18T12:21:18.192Z,4.78
2018-09-18T12:24:21.351Z,10.38
2018-09-18T12:27:24.472Z,5.62
2018-09-18T12:30:27.648Z,8.28
2018-09-18T12:33:30.797Z,5.53
2018-09-18T12:36:33.892Z,5.15
2018-09-18T12:39:37.090Z,9.55
2018-09-18T12:42:40.656Z,6.55
2018-09-18T12:45:43.784Z,4.90
2018-09-18T12:48:47.038Z,7.55
2018-09-18T12:51:50.143Z,5.60
2018-09-18T12:54:53.312Z,18.60
2018-09-18T13:00:45.660Z,5.65
2018-09-18T13:03:48.865Z,7.25
2018-09-18T13:06:52.040Z,6.00
2018-09-18T13:09:55.197Z,4.97
2018-09-18T13:12:58.364Z,7.42
2018-09-18T13:16:01.525Z,11.10
2018-09-18T13:19:04.720Z,10.95
2018-09-18T13:22:07.842Z,6.30
2018-09-18T13:25:11.065Z,5.83
2018-09-18T13:28:14.203Z,20.25
2018-09-18T13:31:17.415Z,7.03
2018-09-18T13:34:20.579Z,7.60
2018-09-18T13:37:23.747Z,5.53
2018-09-18T13:40:26.879Z,7.90
2018-09-18T13:43:30.100Z,9.35
2018-09-18T13:46:33.397Z,5.35
2018-09-18T13:49:36.405Z,5.03
2018-09-18T13:52:39.639Z,6.50
2018-09-18T13:55:42.848Z,4.72
2018-09-18T13:58:46.228Z,7.25
2018-09-18T14:01:49.380Z,8.25
2018-09-18T14:04:52.599Z,7.30
2018-09-18T14:07:56.351Z,8.73
2018-09-18T14:10:59.509Z,5.55
2018-09-18T14:14:02.601Z,7.00
2018-09-18T14:17:05.836Z,4.85
2018-09-18T14:20:09.011Z,6.03
2018-09-18T14:23:12.109Z,5.53
2018-09-18T14:26:15.474Z,6.00
2018-09-18T14:29:19.168Z,7.83
2018-09-18T14:32:22.419Z,8.00
2018-09-18T14:35:25.531Z,10.82
2018-09-18T14:38:28.622Z,10.82
2018-09-18T14:41:31.768Z,9.17
2018-09-18T14:44:34.860Z,7.12
2018-09-18T14:47:38.251Z,6.72
2018-09-18T14:50:41.477Z,8.20
2018-09-18T14:53:44.582Z,7.12
2018-09-18T14:56:47.771Z,5.33
2018-09-18T14:59:51.093Z,6.92
2018-09-18T15:02:54.238Z,7.67
2018-09-18T15:05:57.314Z,5.22
2018-09-18T15:09:00.397Z,4.92
2018-09-18T15:12:03.583Z,7.57
2018-09-18T15:15:06.670Z,5.65
2018-09-18T15:18:09.841Z,5.90
2018-09-18T15:21:12.932Z,6.83
2018-09-18T15:24:16.046Z,7.35
2018-09-18T15:27:19.263Z,7.22
2018-09-18T15:30:22.376Z,10.00
2018-09-18T15:33:25.461Z,6.42
2018-09-18T15:36:28.541Z,10.20
2018-09-18T15:39:31.685Z,8.85
2018-09-18T15:42:34.731Z,6.07
2018-09-18T15:45:37.929Z,6.40
2018-09-18T15:48:40.954Z,7.45
2018-09-18T15:51:44.206Z,8.88
2018-09-18T15:54:47.279Z,8.75
2018-09-18T15:57:50.429Z,9.03
2018-09-18T16:00:53.516Z,9.60
2018-09-18T16:03:56.605Z,8.13
2018-09-18T16:06:59.667Z,10.78
2018-09-18T16:10:02.814Z,10.23
2018-09-18T16:13:05.903Z,10.15
2018-09-18T16:16:09.490Z,13.28
2018-09-18T16:19:12.605Z,8.15
2018-09-18T16:22:15.714Z,5.60
2018-09-18T16:25:18.846Z,9.15
2018-09-18T16:28:21.924Z,8.70
2018-09-18T16:31:25.123Z,10.37
2018-09-18T16:34:28.272Z,8.77
2018-09-18T16:37:31.480Z,12.47
2018-09-18T16:40:34.701Z,10.90
2018-09-18T16:43:37.868Z,11.23
2018-09-18T16:46:41.011Z,13.10
2018-09-18T16:49:44.187Z,10.33
2018-09-18T16:52:47.391Z,12.67
2018-09-18T16:55:50.493Z,8.13
2018-09-18T16:58:53.584Z,11.37
2018-09-18T17:01:56.697Z,16.83
2018-09-18T17:04:59.843Z,15.60
2018-09-18T17:08:04.056Z,11.37
2018-09-18T17:11:07.159Z,14.20
2018-09-18T17:14:10.264Z,9.50
2018-09-18T17:17:14.400Z,8.30
2018-09-18T17:20:17.634Z,8.03
2018-09-18T17:23:21.888Z,9.90
2018-09-18T17:26:25.796Z,13.17
2018-09-18T17:29:29.336Z,11.73
2018-09-18T17:32:32.515Z,12.33
2018-09-18T17:35:35.701Z,14.50
2018-09-18T17:38:38.748Z,11.27
2018-09-18T17:41:41.973Z,20.43
2018-09-18T17:44:45.231Z,19.50
2018-09-18T17:47:48.501Z,14.37
2018-09-18T17:50:51.660Z,20.53
2018-09-18T17:53:54.795Z,21.67
2018-09-18T17:56:58.016Z,14.57
2018-09-18T18:00:01.132Z,17.67
2018-09-18T18:03:04.456Z,19.47
2018-09-18T18:06:07.595Z,16.37
2018-09-18T18:09:11.231Z,16.70
2018-09-18T18:12:14.359Z,13.90
2018-09-18T18:15:17.574Z,18.77
2018-09-18T18:18:21.811Z,19.53
2018-09-18T18:21:25.037Z,23.33
2018-09-18T18:24:28.231Z,26.90
2018-09-18T18:27:31.397Z,17.17
2018-09-18T18:30:34.522Z,19.67
2018-09-18T18:33:38.280Z,22.23
2018-09-18T18:36:41.936Z,19.67
2018-09-18T18:39:45.155Z,23.53
2018-09-18T18:42:48.333Z,22.30
2018-09-18T18:45:51.475Z,22.83
2018-09-18T18:48:54.719Z,18.27
2018-09-18T18:51:57.944Z,19.83
2018-09-18T18:55:01.076Z,17.93
2018-09-18T18:58:05.179Z,21.13
2018-09-18T19:01:08.431Z,19.50
2018-09-18T19:04:11.648Z,21.87
2018-09-18T19:07:14.858Z,15.47
2018-09-18T19:10:18.903Z,19.37
2018-09-18T19:13:22.960Z,19.10
2018-09-18T19:16:26.165Z,18.13
2018-09-18T19:19:30.706Z,23.40
2018-09-18T19:22:34.400Z,18.40
2018-09-18T19:25:38.250Z,26.27
2018-09-18T19:28:41.624Z,23.70
2018-09-18T19:31:44.803Z,19.70
2018-09-18T19:34:47.904Z,17.13
2018-09-18T19:37:51.724Z,23.93
2018-09-18T19:40:54.817Z,23.57
2018-09-18T19:43:57.926Z,32.07
2018-09-18T19:47:01.119Z,22.47
2018-09-18T19:50:04.451Z,25.67
2018-09-18T19:53:07.584Z,24.00
2018-09-18T19:56:10.676Z,22.57
2018-09-18T19:59:15.648Z,32.60
2018-09-18T20:02:19.271Z,22.13
2018-09-18T20:05:22.428Z,30.23
2018-09-18T20:08:25.638Z,24.40
2018-09-18T20:11:29.364Z,22.90
2018-09-18T20:14:34.117Z,23.97
2018-09-18T20:17:38.933Z,22.97
2018-09-18T20:20:43.092Z,33.87
2018-09-18T20:23:46.920Z,21.23
2018-09-18T20:26:51.085Z,24.57
2018-09-18T20:29:55.637Z,25.03
2018-09-18T20:32:59.234Z,24.00
2018-09-18T20:36:02.963Z,22.53
2018-09-18T20:39:09.427Z,26.80
2018-09-18T20:42:14.691Z,24.77
2018-09-18T20:45:17.865Z,32.73
2018-09-18T20:48:20.979Z,24.80
2018-09-18T20:51:24.079Z,32.13
2018-09-18T20:54:27.223Z,24.23
2018-09-18T20:57:30.340Z,27.63
2018-09-18T21:00:34.523Z,29.37
2018-09-18T21:03:39.232Z,26.40
2018-09-18T21:06:43.038Z,31.30
2018-09-18T21:09:46.592Z,31.17
2018-09-18T21:12:50.882Z,27.63
2018-09-18T21:15:54.872Z,27.33
2018-09-18T21:18:58.520Z,32.73
2018-09-18T21:22:03.086Z,28.90
2018-09-18T21:25:16.543Z,36.60
2018-09-18T21:28:20.633Z,27.30
2018-09-18T21:31:26.107Z,29.47
2018-09-18T21:34:30.066Z,29.47
2018-09-18T21:37:35.010Z,30.27
2018-09-18T21:40:38.687Z,26.80
2018-09-18T21:43:45.013Z,23.77
2018-09-18T21:46:49.027Z,34.83
2018-09-18T21:49:52.906Z,24.83
2018-09-18T21:52:57.103Z,28.50
2018-09-18T21:56:01.842Z,27.87
2018-09-18T21:59:05.261Z,29.93
2018-09-18T22:02:09.061Z,29.13
2018-09-18T22:05:12.677Z,29.40
2018-09-18T22:08:16.324Z,27.83
2018-09-18T22:11:21.996Z,30.27
2018-09-18T22:14:26.012Z,28.77
2018-09-18T22:17:29.752Z,31.53
2018-09-18T22:20:33.480Z,29.30
2018-09-18T22:23:37.316Z,26.87
2018-09-18T22:26:42.555Z,26.37
2018-09-18T22:29:46.270Z,28.13
2018-09-18T22:32:50.809Z,29.77
2018-09-18T22:35:54.464Z,28.17
2018-09-18T22:38:58.043Z,26.13
2018-09-18T22:42:01.818Z,22.07
2018-09-18T22:45:05.579Z,27.93
2018-09-18T22:48:10.060Z,34.50
2018-09-18T22:51:16.160Z,31.60
2018-09-18T22:54:19.743Z,29.77
2018-09-18T22:57:23.495Z,29.67
2018-09-18T23:00:27.315Z,36.67
2018-09-18T23:03:31.018Z,26.00
2018-09-18T23:06:35.066Z,44.23
2018-09-18T23:09:38.516Z,36.73
2018-09-18T23:12:42.881Z,37.13
2018-09-18T23:15:46.342Z,41.50
2018-09-18T23:18:50.096Z,30.07
2018-09-18T23:21:53.544Z,38.50
2018-09-18T23:24:56.679Z,37.03
2018-09-18T23:27:59.909Z,30.30
2018-09-18T23:31:02.978Z,27.67
2018-09-18T23:34:06.122Z,27.17
2018-09-18T23:37:09.225Z,30.13
2018-09-18T23:40:12.351Z,25.87
2018-09-18T23:43:15.469Z,22.83
2018-09-18T23:46:18.649Z,22.83
2018-09-18T23:49:21.799Z,25.70
2018-09-18T23:52:24.875Z,29.07
2018-09-18T23:55:29.101Z,21.40
2018-09-18T23:58:33.136Z,31.00
